Jette Viking Hv77 — 5QEP — position and weather

sailwx.info

Track history (hours):
 
Tides and Currents Weather Stations Pressure Air Temp Water Temp Dewpoint Dewpoint Depression Visibility Wind Speed Wind Dir Waves Ship Positions

Jette Viking Hv77

Last reported at 2015-Jul-06 01:03 UTC. Time now 2015-Jul-07 15:24 UTC.
Position N 57°28' E 010°43'.

Length 16 m.

Type: Fishing. MMSI: 220046000.

Date/timePositionNaut miles runAvg speedWind from/ knotsBaromVisibWave heightAir tempDewpointWater temp
2015-Jul-06 01:03N 57°28' E 010°43'1 2.5
2015-Jul-06 00:29N 57°27' E 010°44'2 2.5
2015-Jul-05 23:33N 57°24' E 010°45'3 2.5
2015-Jul-05 22:33N 57°22' E 010°45'2 2.3
2015-Jul-05 21:33N 57°24' E 010°46'3 2.5
2015-Jul-05 20:28N 57°27' E 010°46'2 2.5
2015-Jul-05 19:33N 57°29' E 010°46'4 3.6
2015-Jul-05 18:33N 57°29' E 010°39'5 4.9
2015-Jul-05 17:33N 57°30' E 010°30'0 0.0
2015-Jul-05 16:33N 57°30' E 010°30'0 0.0
2015-Jul-05 15:29N 57°30' E 010°30'0 0.0
2015-Jul-05 14:14N 57°30' E 010°30'0 0.0
2015-Jul-05 13:29N 57°30' E 010°30'0 0.0
2015-Jul-05 12:09N 57°30' E 010°30'0 0.0
2015-Jul-05 11:33N 57°30' E 010°30'0 0.0
2015-Jul-05 10:33N 57°30' E 010°30'0 0.0
2015-Jul-05 09:32N 57°30' E 010°30'0 0.0
2015-Jul-05 08:32N 57°30' E 010°30'0 0.0
2015-Jul-05 07:29N 57°30' E 010°30'0 0.0
2015-Jul-05 06:33N 57°30' E 010°30'0 0.0
2015-Jul-05 05:33N 57°30' E 010°30'0 0.0
2015-Jul-05 04:33N 57°30' E 010°30'0 0.0
2015-Jul-05 03:33N 57°30' E 010°30'0 0.0
2015-Jul-05 02:31N 57°30' E 010°30'0 0.0
2015-Jul-05 01:24N 57°30' E 010°30'0 0.0
2015-Jul-05 00:33N 57°30' E 010°30'0 0.0
2015-Jul-04 23:33N 57°30' E 010°30'0 0.0
2015-Jul-04 21:10N 57°30' E 010°30'0 0.0
2015-Jul-04 20:19N 57°30' E 010°30'0 0.0
2015-Jul-04 18:31N 57°30' E 010°30'0 0.0
2015-Jul-04 17:33N 57°30' E 010°30'0 0.0
2015-Jul-04 09:30N 57°30' E 010°30'0 0.0
2015-Jul-04 07:10N 57°30' E 010°30'0 0.0
2015-Jul-02 19:28N 57°30' E 010°30'0 0.0
2015-Jul-02 11:03N 57°30' E 010°30'0 0.2
2015-Jul-02 10:23N 57°30' E 010°30'0 0.0
2015-Jul-02 09:16N 57°30' E 010°30'0 0.0
2015-Jul-02 08:33N 57°30' E 010°30'0 0.0
2015-Jul-02 07:33N 57°30' E 010°30'0 0.0
2015-Jul-02 06:33N 57°30' E 010°30'0 0.0
2015-Jul-02 05:33N 57°30' E 010°30'1 1.0
2015-Jul-02 04:33N 57°30' E 010°32'1 0.7
2015-Jul-02 03:33N 57°30' E 010°33'6 6.2
2015-Jul-02 02:33N 57°26' E 010°43'2 1.7
2015-Jul-02 01:33N 57°28' E 010°41'3 2.5
2015-Jul-02 00:30N 57°30' E 010°40'3 2.5
2015-Jul-01 23:22N 57°33' E 010°40'2 2.6
2015-Jul-01 22:33N 57°35' E 010°40'2 2.1
2015-Jul-01 21:33N 57°33' E 010°40'3 2.5
2015-Jul-01 20:33N 57°31' E 010°40'2 2.2
2015-Jul-01 19:28N 57°29' E 010°38'4 4.2
2015-Jul-01 18:28N 57°30' E 010°30'0 0.0
2015-Jul-01 16:29N 57°30' E 010°30'0 0.0
2015-Jul-01 15:33N 57°30' E 010°30'0 0.0
2015-Jul-01 14:33N 57°30' E 010°30'0 0.0
2015-Jul-01 13:33N 57°30' E 010°30'0 0.0
2015-Jul-01 12:33N 57°30' E 010°30'0 0.0
2015-Jul-01 10:33N 57°30' E 010°30'0 0.0
2015-Jul-01 08:04N 57°30' E 010°30'0 0.0
2015-Jul-01 07:32N 57°30' E 010°30'0 0.0
2015-Jul-01 06:33N 57°30' E 010°30'0 0.0
2015-Jul-01 05:33N 57°30' E 010°30'1 0.6
2015-Jul-01 04:33N 57°30' E 010°31'1 0.9
2015-Jul-01 03:33N 57°29' E 010°33'5 5.3
2015-Jul-01 02:33N 57°27' E 010°42'2 1.7
2015-Jul-01 01:33N 57°29' E 010°40'3 2.5
2015-Jul-01 00:33N 57°31' E 010°40'2 2.5
2015-Jun-30 23:33N 57°34' E 010°39'1 0.5
2015-Jun-30 22:33N 57°34' E 010°40'3 2.5
2015-Jun-30 21:32N 57°32' E 010°40'2 2.5
2015-Jun-30 20:33N 57°29' E 010°40'2 1.6
2015-Jun-30 19:31N 57°28' E 010°40'6 5.9
2015-Jun-30 18:33N 57°30' E 010°30'0 0.0
2015-Jun-30 17:31N 57°30' E 010°30'0 0.0
2015-Jun-30 16:33N 57°30' E 010°30'0 0.0
2015-Jun-30 13:09N 57°30' E 010°30'6 0.3
2015-Jun-29 20:33N 57°28' E 010°41'8 0.4
2015-Jun-29 02:33N 57°29' E 010°55'2 1.6
2015-Jun-29 01:33N 57°29' E 010°58'2 2.5
2015-Jun-29 00:33N 57°30' E 011°02'3 2.5
2015-Jun-28 23:23N 57°32' E 011°06'1 1.1
2015-Jun-28 22:33N 57°33' E 011°08'3 2.5
2015-Jun-28 21:33N 57°31' E 011°04'3 2.5
2015-Jun-28 20:32N 57°30' E 010°60'3 3.6
2015-Jun-28 19:33N 57°29' E 010°53'8 7.8
2015-Jun-28 18:31N 57°29' E 010°39'  
2015-Jun-26 07:04N 57°30' E 010°30'0 0.0
2015-Jun-26 06:32N 57°30' E 010°30'0 0.0
2015-Jun-26 05:33N 57°30' E 010°30'6 2.0
2015-Jun-26 02:31N 57°28' E 010°41'  
Track history (hours):
 
Tides and Currents Weather Stations Pressure Air Temp Water Temp Dewpoint Dewpoint Depression Visibility Wind Speed Wind Dir Waves Ship Positions

Jette Viking Hv77

Last reported at 2015-Jul-06 01:03 UTC. Time now 2015-Jul-07 15:24 UTC.
Position N 57°28' E 010°43'.

Length 16 m.

Type: Fishing. MMSI: 220046000.

Date/timePositionNaut miles runAvg speedWind from/ knotsBaromVisibWave heightAir tempDewpointWater temp
2015-Jul-06 01:03N 57°28' E 010°43'1 2.5
2015-Jul-06 00:29N 57°27' E 010°44'2 2.5
2015-Jul-05 23:33N 57°24' E 010°45'3 2.5
2015-Jul-05 22:33N 57°22' E 010°45'2 2.3
2015-Jul-05 21:33N 57°24' E 010°46'3 2.5
2015-Jul-05 20:28N 57°27' E 010°46'2 2.5
2015-Jul-05 19:33N 57°29' E 010°46'4 3.6
2015-Jul-05 18:33N 57°29' E 010°39'5 4.9
2015-Jul-05 17:33N 57°30' E 010°30'0 0.0
2015-Jul-05 16:33N 57°30' E 010°30'0 0.0
2015-Jul-05 15:29N 57°30' E 010°30'0 0.0
2015-Jul-05 14:14N 57°30' E 010°30'0 0.0
2015-Jul-05 13:29N 57°30' E 010°30'0 0.0
2015-Jul-05 12:09N 57°30' E 010°30'0 0.0
2015-Jul-05 11:33N 57°30' E 010°30'0 0.0
2015-Jul-05 10:33N 57°30' E 010°30'0 0.0
2015-Jul-05 09:32N 57°30' E 010°30'0 0.0
2015-Jul-05 08:32N 57°30' E 010°30'0 0.0
2015-Jul-05 07:29N 57°30' E 010°30'0 0.0
2015-Jul-05 06:33N 57°30' E 010°30'0 0.0
2015-Jul-05 05:33N 57°30' E 010°30'0 0.0
2015-Jul-05 04:33N 57°30' E 010°30'0 0.0
2015-Jul-05 03:33N 57°30' E 010°30'0 0.0
2015-Jul-05 02:31N 57°30' E 010°30'0 0.0
2015-Jul-05 01:24N 57°30' E 010°30'0 0.0
2015-Jul-05 00:33N 57°30' E 010°30'0 0.0
2015-Jul-04 23:33N 57°30' E 010°30'0 0.0
2015-Jul-04 21:10N 57°30' E 010°30'0 0.0
2015-Jul-04 20:19N 57°30' E 010°30'0 0.0
2015-Jul-04 18:31N 57°30' E 010°30'0 0.0
2015-Jul-04 17:33N 57°30' E 010°30'0 0.0
2015-Jul-04 09:30N 57°30' E 010°30'0 0.0
2015-Jul-04 07:10N 57°30' E 010°30'0 0.0
2015-Jul-02 19:28N 57°30' E 010°30'0 0.0
2015-Jul-02 11:03N 57°30' E 010°30'0 0.2
2015-Jul-02 10:23N 57°30' E 010°30'0 0.0
2015-Jul-02 09:16N 57°30' E 010°30'0 0.0
2015-Jul-02 08:33N 57°30' E 010°30'0 0.0
2015-Jul-02 07:33N 57°30' E 010°30'0 0.0
2015-Jul-02 06:33N 57°30' E 010°30'0 0.0
2015-Jul-02 05:33N 57°30' E 010°30'1 1.0
2015-Jul-02 04:33N 57°30' E 010°32'1 0.7
2015-Jul-02 03:33N 57°30' E 010°33'6 6.2
2015-Jul-02 02:33N 57°26' E 010°43'2 1.7
2015-Jul-02 01:33N 57°28' E 010°41'3 2.5
2015-Jul-02 00:30N 57°30' E 010°40'3 2.5
2015-Jul-01 23:22N 57°33' E 010°40'2 2.6
2015-Jul-01 22:33N 57°35' E 010°40'2 2.1
2015-Jul-01 21:33N 57°33' E 010°40'3 2.5
2015-Jul-01 20:33N 57°31' E 010°40'2 2.2
2015-Jul-01 19:28N 57°29' E 010°38'4 4.2
2015-Jul-01 18:28N 57°30' E 010°30'0 0.0
2015-Jul-01 16:29N 57°30' E 010°30'0 0.0
2015-Jul-01 15:33N 57°30' E 010°30'0 0.0
2015-Jul-01 14:33N 57°30' E 010°30'0 0.0
2015-Jul-01 13:33N 57°30' E 010°30'0 0.0
2015-Jul-01 12:33N 57°30' E 010°30'0 0.0
2015-Jul-01 10:33N 57°30' E 010°30'0 0.0
2015-Jul-01 08:04N 57°30' E 010°30'0 0.0
2015-Jul-01 07:32N 57°30' E 010°30'0 0.0
2015-Jul-01 06:33N 57°30' E 010°30'0 0.0
2015-Jul-01 05:33N 57°30' E 010°30'1 0.6
2015-Jul-01 04:33N 57°30' E 010°31'1 0.9
2015-Jul-01 03:33N 57°29' E 010°33'5 5.3
2015-Jul-01 02:33N 57°27' E 010°42'2 1.7
2015-Jul-01 01:33N 57°29' E 010°40'3 2.5
2015-Jul-01 00:33N 57°31' E 010°40'2 2.5
2015-Jun-30 23:33N 57°34' E 010°39'1 0.5
2015-Jun-30 22:33N 57°34' E 010°40'3 2.5
2015-Jun-30 21:32N 57°32' E 010°40'2 2.5
2015-Jun-30 20:33N 57°29' E 010°40'2 1.6
2015-Jun-30 19:31N 57°28' E 010°40'6 5.9
2015-Jun-30 18:33N 57°30' E 010°30'0 0.0
2015-Jun-30 17:31N 57°30' E 010°30'0 0.0
2015-Jun-30 16:33N 57°30' E 010°30'0 0.0
2015-Jun-30 13:09N 57°30' E 010°30'6 0.3
2015-Jun-29 20:33N 57°28' E 010°41'8 0.4
2015-Jun-29 02:33N 57°29' E 010°55'2 1.6
2015-Jun-29 01:33N 57°29' E 010°58'2 2.5
2015-Jun-29 00:33N 57°30' E 011°02'3 2.5
2015-Jun-28 23:23N 57°32' E 011°06'1 1.1
2015-Jun-28 22:33N 57°33' E 011°08'3 2.5
2015-Jun-28 21:33N 57°31' E 011°04'3 2.5
2015-Jun-28 20:32N 57°30' E 010°60'3 3.6
2015-Jun-28 19:33N 57°29' E 010°53'8 7.8
2015-Jun-28 18:31N 57°29' E 010°39'  
2015-Jun-26 07:04N 57°30' E 010°30'0 0.0
2015-Jun-26 06:32N 57°30' E 010°30'0 0.0
2015-Jun-26 05:33N 57°30' E 010°30'6 2.0
2015-Jun-26 02:31N 57°28' E 010°41'  

Dump ship's entire track history